Time;durP1;ratioP1;P1;durP2;ratioP2;P2;SDS_P1;SDS_P2;PMS_P1;PMS_P2;Temp;Humidity;BMP_temperature;BMP_pressure;BME280_temperature;BME280_humidity;BME280_pressure;Samples;Min_cycle;Max_cycle;Signal;HPM_P1;HPM_P2
2022/06/03 00:02:14;;;;;;;4.30;2.30;;;;;;101176.04;;;;107512;1278;29655;-30
2022/06/03 00:05:05;;;;;;;4.40;2.40;;;;;;101178.21;;;;107490;1277;28645;-30
2022/06/03 00:07:42;;;;;;;4.30;2.40;;;;;;101180.58;;;;107509;1277;28847;-30
2022/06/03 00:10:49;;;;;;;4.00;2.20;;;;;;101182.40;;;;107505;1277;27470;-30
2022/06/03 00:14:03;;;;;;;3.80;2.10;;;;;;101183.38;;;;107525;1277;28780;-30
2022/06/03 00:16:51;;;;;;;4.50;2.80;;;;;;101184.46;;;;107515;1277;28710;-30
2022/06/03 00:19:29;;;;;;;5.90;3.10;;;;;;101186.13;;;;107491;1280;29791;-30
2022/06/03 00:22:12;;;;;;;4.30;2.30;;;;;;101187.63;;;;107501;1277;28698;-30
2022/06/03 00:24:59;;;;;;;4.00;2.30;;;;;;101186.02;;;;107503;1277;26477;-31
2022/06/03 00:28:15;;;;;;;4.00;2.10;;;;;;101185.73;;;;107488;1277;27608;-31
2022/06/03 00:31:11;;;;;;;4.10;2.20;;;;;;101183.85;;;;107502;1277;29612;-31
2022/06/03 00:34:09;;;;;;;4.10;2.20;;;;;;101184.11;;;;107496;1277;29559;-31
2022/06/03 00:36:56;;;;;;;4.30;2.10;;;;;;101183.61;;;;107528;1278;27720;-30
2022/06/03 00:39:58;;;;;;;4.20;2.10;;;;;;101185.30;;;;107487;1277;28781;-30
2022/06/03 00:42:39;;;;;;;3.80;2.30;;;;;;101183.02;;;;107506;1277;29542;-30
2022/06/03 00:45:41;;;;;;;5.00;2.30;;;;;;101184.04;;;;107514;1278;27739;-30
2022/06/03 00:48:39;;;;;;;3.60;2.20;;;;;;101180.78;;;;107458;1279;28745;-31
2022/06/03 00:51:33;;;;;;;3.80;2.20;;;;;;101181.17;;;;107527;1277;29848;-31
2022/06/03 00:54:28;;;;;;;4.40;2.40;;;;;;101181.20;;;;107505;1278;26886;-29
2022/06/03 00:57:37;;;;;;;4.40;2.30;;;;;;101182.85;;;;107505;1277;29280;-30
2022/06/03 01:00:09;;;;;;;4.40;2.40;;;;;;101180.60;;;;107498;1279;28686;-29
2022/06/03 01:03:11;;;;;;;4.20;2.50;;;;;;101180.65;;;;107528;1277;28688;-30
2022/06/03 01:06:00;;;;;;;4.10;2.10;;;;;;101185.04;;;;107536;1277;28705;-30
2022/06/03 01:08:32;;;;;;;4.40;2.30;;;;;;101186.34;;;;107508;1277;28761;-30
2022/06/03 01:11:45;;;;;;;3.90;2.40;;;;;;101186.41;;;;107508;1277;26376;-30
2022/06/03 01:14:36;;;;;;;4.30;2.70;;;;;;101188.34;;;;107508;1277;29523;-30
2022/06/03 01:17:51;;;;;;;4.10;2.20;;;;;;101187.47;;;;107532;1277;26325;-30
2022/06/03 01:20:27;;;;;;;3.90;2.20;;;;;;101188.65;;;;107530;1277;28755;-30
2022/06/03 01:23:39;;;;;;;4.80;2.30;;;;;;101189.98;;;;107502;1278;29617;-30
2022/06/03 01:26:40;;;;;;;4.40;2.10;;;;;;101191.55;;;;107182;1279;28688;-30
2022/06/03 01:29:55;;;;;;;4.60;2.20;;;;;;101191.12;;;;107491;1277;28664;-30
2022/06/03 01:33:02;;;;;;;3.90;2.60;;;;;;101188.65;;;;107512;1277;27310;-30
2022/06/03 01:35:43;;;;;;;4.20;2.40;;;;;;101188.16;;;;107504;1277;28787;-30
2022/06/03 01:38:38;;;;;;;4.20;2.50;;;;;;101186.18;;;;107498;1276;29749;-30
2022/06/03 01:41:46;;;;;;;4.30;2.40;;;;;;101186.36;;;;107494;1277;28566;-30
2022/06/03 01:45:11;;;;;;;4.50;2.50;;;;;;101190.05;;;;107459;1277;29585;-30
2022/06/03 01:47:56;;;;;;;;;;;;;;101187.77;;;;107218;1277;27453;-30
2022/06/03 01:50:57;;;;;;;4.20;2.30;;;;;;101183.59;;;;107519;1277;29608;-30
2022/06/03 01:53:54;;;;;;;4.80;2.60;;;;;;101175.20;;;;107522;1277;27438;-30
2022/06/03 01:57:03;;;;;;;5.10;2.70;;;;;;101177.66;;;;107504;1277;29663;-30
2022/06/03 02:00:13;;;;;;;4.60;2.60;;;;;;101178.29;;;;107526;1277;27562;-30
2022/06/03 02:03:24;;;;;;;4.30;2.20;;;;;;101179.90;;;;107514;1277;29438;-30
2022/06/03 02:06:11;;;;;;;4.70;2.20;;;;;;101175.83;;;;107520;1277;28737;-30
2022/06/03 02:09:00;;;;;;;4.20;2.50;;;;;;101174.50;;;;107528;1277;28777;-30
2022/06/03 02:12:00;;;;;;;4.30;2.40;;;;;;101174.40;;;;107533;1277;29636;-30
2022/06/03 02:15:23;;;;;;;4.50;2.40;;;;;;101176.91;;;;107479;1278;26152;-29
2022/06/03 02:18:14;;;;;;;4.40;2.50;;;;;;101177.14;;;;107504;1277;29432;-29
2022/06/03 02:21:38;;;;;;;4.20;2.60;;;;;;101179.26;;;;107482;1277;29788;-29
2022/06/03 02:25:06;;;;;;;4.50;2.60;;;;;;101178.88;;;;107514;1277;28763;-30
2022/06/03 02:28:02;;;;;;;4.70;2.80;;;;;;101178.77;;;;107400;1277;27812;-29
2022/06/03 02:31:25;;;;;;;4.10;2.40;;;;;;101180.34;;;;107142;1277;27441;-30
2022/06/03 02:34:27;;;;;;;4.10;2.60;;;;;;101181.85;;;;107487;1278;28399;-29
2022/06/03 02:37:47;;;;;;;4.70;2.70;;;;;;101182.69;;;;107531;1277;30035;-30
2022/06/03 02:40:45;;;;;;;4.00;2.40;;;;;;101178.84;;;;107520;1278;28547;-30
2022/06/03 02:43:53;;;;;;;4.90;2.90;;;;;;101180.22;;;;107518;1277;28694;-30
2022/06/03 02:46:41;;;;;;;4.50;2.70;;;;;;101181.73;;;;107473;1281;27675;-31
2022/06/03 02:49:32;;;;;;;4.30;2.90;;;;;;101180.98;;;;107519;1276;28677;-31
2022/06/03 02:52:43;;;;;;;4.20;2.50;;;;;;101183.44;;;;107500;1277;28840;-31
2022/06/03 02:55:25;;;;;;;4.70;2.60;;;;;;101187.00;;;;107484;1278;28858;-31
2022/06/03 02:58:17;;;;;;;3.90;2.40;;;;;;101188.55;;;;107490;1277;27784;-31
2022/06/03 03:01:11;;;;;;;4.00;2.50;;;;;;101192.16;;;;107515;1277;28714;-30
2022/06/03 03:03:49;;;;;;;4.60;2.70;;;;;;101199.71;;;;107507;1277;27822;-30
2022/06/03 03:07:00;;;;;;;3.90;2.60;;;;;;101205.23;;;;107516;1277;28814;-30
2022/06/03 03:10:04;;;;;;;4.30;2.60;;;;;;101209.11;;;;107509;1277;26071;-30
2022/06/03 03:13:14;;;;;;;4.80;2.50;;;;;;101212.92;;;;107502;1277;28661;-30
2022/06/03 03:16:07;;;;;;;4.40;2.80;;;;;;101214.38;;;;107479;1277;27528;-30
2022/06/03 03:19:12;;;;;;;4.20;2.40;;;;;;101214.90;;;;107513;1277;28641;-30
2022/06/03 03:22:24;;;;;;;4.10;2.50;;;;;;101218.75;;;;107495;1277;27248;-30
2022/06/03 03:25:31;;;;;;;4.60;2.80;;;;;;101223.64;;;;107496;1277;28775;-30
2022/06/03 03:28:24;;;;;;;4.60;2.70;;;;;;101228.20;;;;107514;1277;26183;-30
2022/06/03 03:31:02;;;;;;;4.10;2.30;;;;;;101229.77;;;;107500;1277;29241;-30
2022/06/03 03:33:57;;;;;;;4.20;2.40;;;;;;101229.24;;;;107503;1277;29710;-30
2022/06/03 03:36:42;;;;;;;4.20;2.50;;;;;;101233.77;;;;107502;1277;28627;-30
2022/06/03 03:39:31;;;;;;;4.30;2.50;;;;;;101237.08;;;;107499;1277;28713;-30
2022/06/03 03:41:57;;;;;;;4.10;2.60;;;;;;101241.38;;;;107503;1277;28681;-30
2022/06/03 03:45:24;;;;;;;3.90;2.50;;;;;;101245.02;;;;107504;1277;28705;-30
2022/06/03 03:48:39;;;;;;;3.90;2.50;;;;;;101250.48;;;;107516;1277;29486;-30
2022/06/03 03:51:32;;;;;;;4.10;2.50;;;;;;101252.73;;;;107232;1278;29902;-31
2022/06/03 03:54:42;;;;;;;4.20;2.40;;;;;;101257.57;;;;107461;1281;28697;-31
2022/06/03 03:58:16;;;;;;;3.90;2.60;;;;;;101261.54;;;;107482;1279;28710;-31
2022/06/03 04:01:34;;;;;;;4.70;2.80;;;;;;101264.13;;;;106828;1278;27628;-31
2022/06/03 04:04:53;;;;;;;4.30;2.30;;;;;;101263.27;;;;107564;1277;27399;-30
2022/06/03 04:07:50;;;;;;;4.70;2.50;;;;;;101263.90;;;;107515;1277;28718;-30
2022/06/03 04:10:50;;;;;;;4.70;3.10;;;;;;101266.20;;;;107500;1277;27708;-30
2022/06/03 04:14:12;;;;;;;5.00;2.90;;;;;;101265.96;;;;107502;1277;28677;-29
2022/06/03 04:17:14;;;;;;;4.80;2.50;;;;;;101265.45;;;;107524;1277;28782;-29
2022/06/03 04:20:15;;;;;;;4.50;2.80;;;;;;101266.30;;;;107510;1277;28581;-30
2022/06/03 04:23:14;;;;;;;4.50;2.70;;;;;;101268.95;;;;107518;1277;28807;-30
2022/06/03 04:26:08;;;;;;;4.40;2.50;;;;;;101270.66;;;;107500;1277;28806;-30
2022/06/03 04:28:54;;;;;;;4.10;2.60;;;;;;101269.74;;;;107482;1278;27804;-30
2022/06/03 04:31:59;;;;;;;4.60;2.70;;;;;;101270.73;;;;107476;1281;28560;-30
2022/06/03 04:35:07;;;;;;;4.30;2.50;;;;;;101274.56;;;;107520;1278;28652;-30
2022/06/03 04:38:02;;;;;;;4.60;2.40;;;;;;101277.20;;;;107514;1277;28705;-28
2022/06/03 04:41:35;;;;;;;4.50;2.50;;;;;;101279.12;;;;107510;1277;29980;-30
2022/06/03 04:44:29;;;;;;;5.00;2.80;;;;;;101281.47;;;;107516;1277;27245;-30
2022/06/03 04:47:29;;;;;;;4.20;2.80;;;;;;101284.50;;;;107502;1277;29513;-30
2022/06/03 04:50:27;;;;;;;3.80;2.50;;;;;;101284.08;;;;107517;1277;27980;-30
2022/06/03 04:53:21;;;;;;;4.20;2.80;;;;;;101286.63;;;;107518;1277;28918;-30
2022/06/03 04:56:32;;;;;;;4.00;2.50;;;;;;101289.89;;;;107514;1277;28723;-30
2022/06/03 04:59:39;;;;;;;4.30;2.50;;;;;;101291.58;;;;107501;1277;28583;-30
2022/06/03 05:02:30;;;;;;;4.50;2.60;;;;;;101296.23;;;;107512;1277;27419;-30
2022/06/03 05:05:25;;;;;;;4.50;2.50;;;;;;101296.02;;;;107522;1277;28622;-30
2022/06/03 05:08:47;;;;;;;7.20;3.90;;;;;;101299.59;;;;107521;1277;28688;-30
2022/06/03 05:11:54;;;;;;;4.90;2.70;;;;;;101300.09;;;;107537;1277;27288;-30
2022/06/03 05:15:04;;;;;;;4.50;2.70;;;;;;101302.66;;;;107548;1277;28667;-30
2022/06/03 05:18:12;;;;;;;4.20;2.30;;;;;;101304.25;;;;107534;1277;28738;-30
2022/06/03 05:20:59;;;;;;;4.20;2.30;;;;;;101305.05;;;;107550;1277;26118;-30
2022/06/03 05:24:02;;;;;;;4.40;2.40;;;;;;101307.18;;;;107467;1281;28929;-30
2022/06/03 05:27:03;;;;;;;4.90;2.30;;;;;;101308.80;;;;107312;1278;315843;-30
2022/06/03 05:29:53;;;;;;;4.10;2.40;;;;;;101306.95;;;;107529;1277;26155;-30
2022/06/03 05:33:01;;;;;;;4.40;2.50;;;;;;101306.06;;;;107511;1277;28554;-30
2022/06/03 05:35:54;;;;;;;4.10;2.20;;;;;;101307.73;;;;107527;1278;28857;-30
2022/06/03 05:39:09;;;;;;;4.20;2.60;;;;;;101309.74;;;;107553;1277;28572;-30
2022/06/03 05:45:08;;;;;;;4.50;2.70;;;;;;101312.27;;;;107545;1277;27266;-28
2022/06/03 05:47:56;;;;;;;4.40;2.30;;;;;;101313.95;;;;107503;1277;28783;-29
2022/06/03 05:50:51;;;;;;;4.50;2.60;;;;;;101312.05;;;;107519;1277;28701;-30
2022/06/03 05:53:59;;;;;;;5.80;2.50;;;;;;101312.48;;;;107505;1277;27968;-30
2022/06/03 05:57:03;;;;;;;4.30;2.40;;;;;;101312.94;;;;107520;1277;27678;-30
2022/06/03 06:00:24;;;;;;;4.90;2.50;;;;;;101310.30;;;;107488;1281;26314;-30
2022/06/03 06:02:53;;;;;;;4.50;2.60;;;;;;101310.86;;;;107524;1278;29133;-30
2022/06/03 06:05:41;;;;;;;4.10;2.60;;;;;;101310.01;;;;107543;1277;27286;-30
2022/06/03 06:08:40;;;;;;;4.50;2.40;;;;;;101313.21;;;;107525;1277;30361;-30
2022/06/03 06:11:33;;;;;;;4.20;2.50;;;;;;101316.31;;;;107546;1277;28469;-30
2022/06/03 06:14:25;;;;;;;4.90;2.30;;;;;;101318.08;;;;107509;1277;28727;-30
2022/06/03 06:16:53;;;;;;;4.70;2.70;;;;;;101317.19;;;;107541;1278;27261;-30
2022/06/03 06:19:40;;;;;;;4.10;2.60;;;;;;101318.57;;;;107331;1281;26408;-30
2022/06/03 06:22:34;;;;;;;3.50;2.20;;;;;;101321.00;;;;107556;1277;29590;-30
2022/06/03 06:25:13;;;;;;;4.20;2.20;;;;;;101326.59;;;;107514;1278;28635;-30
2022/06/03 06:28:02;;;;;;;4.00;2.20;;;;;;101323.19;;;;107537;1278;29150;-29
2022/06/03 06:31:06;;;;;;;4.40;2.40;;;;;;101321.15;;;;107339;1282;29840;-30
2022/06/03 06:34:03;;;;;;;4.70;2.30;;;;;;101316.79;;;;107508;1279;26705;-30
2022/06/03 06:37:19;;;;;;;4.40;2.20;;;;;;101319.19;;;;107526;1277;29707;-30
2022/06/03 06:40:09;;;;;;;4.10;2.70;;;;;;101319.63;;;;107453;1279;27483;-30
2022/06/03 06:43:00;;;;;;;5.00;2.20;;;;;;101316.33;;;;107528;1277;28689;-30
2022/06/03 06:45:54;;;;;;;4.00;2.20;;;;;;101317.36;;;;107545;1277;27695;-30
2022/06/03 06:48:51;;;;;;;4.30;2.00;;;;;;101318.38;;;;107430;1277;28629;-32
2022/06/03 06:51:44;;;;;;;4.50;2.30;;;;;;101317.99;;;;107515;1277;29908;-31
2022/06/03 06:54:27;;;;;;;3.80;2.30;;;;;;101319.41;;;;107510;1277;27733;-30
2022/06/03 06:56:59;;;;;;;3.30;2.00;;;;;;101316.38;;;;107528;1278;26413;-30
2022/06/03 06:59:49;;;;;;;4.00;2.20;;;;;;101317.34;;;;107501;1277;27668;-30
2022/06/03 07:02:47;;;;;;;4.50;2.20;;;;;;101310.86;;;;107510;1278;29353;-31
2022/06/03 07:05:37;;;;;;;4.90;2.10;;;;;;101308.13;;;;107499;1277;29936;-31
2022/06/03 07:08:21;;;;;;;5.50;2.10;;;;;;101312.44;;;;107499;1277;28670;-32
2022/06/03 07:11:06;;;;;;;3.60;2.10;;;;;;101308.91;;;;107530;1278;28705;-31
2022/06/03 07:13:56;;;;;;;3.40;1.90;;;;;;101305.82;;;;107515;1277;28732;-31
2022/06/03 07:20:00;;;;;;;4.00;2.20;;;;;;101301.25;;;;107501;1277;28674;-31
2022/06/03 07:22:47;;;;;;;4.30;2.10;;;;;;101296.19;;;;107436;1277;28875;-31
2022/06/03 07:25:33;;;;;;;4.70;1.90;;;;;;101292.67;;;;107491;1278;29578;-32
2022/06/03 07:28:15;;;;;;;5.00;2.20;;;;;;101294.21;;;;107507;1277;28637;-30
2022/06/03 07:31:20;;;;;;;4.00;2.20;;;;;;101289.33;;;;107514;1278;27525;-31
2022/06/03 07:34:07;;;;;;;3.70;2.00;;;;;;101286.79;;;;107552;1277;28610;-31
2022/06/03 07:37:04;;;;;;;3.40;1.90;;;;;;101288.38;;;;107506;1277;29617;-31
2022/06/03 07:39:56;;;;;;;3.90;2.20;;;;;;101290.49;;;;107530;1278;28659;-31
2022/06/03 07:42:48;;;;;;;3.50;2.10;;;;;;101291.96;;;;107516;1278;28732;-31
2022/06/03 07:45:29;;;;;;;3.70;1.90;;;;;;101294.96;;;;107540;1278;27264;-32
2022/06/03 07:47:59;;;;;;;3.10;1.70;;;;;;101293.52;;;;107545;1277;28671;-32
2022/06/03 07:50:27;;;;;;;3.00;1.80;;;;;;101295.67;;;;107495;1278;27447;-31
2022/06/03 07:53:25;;;;;;;3.20;1.80;;;;;;101294.84;;;;107547;1277;28750;-31
2022/06/03 07:55:54;;;;;;;3.70;1.70;;;;;;101290.60;;;;107515;1277;28639;-31
2022/06/03 07:58:25;;;;;;;3.40;1.70;;;;;;101289.52;;;;107531;1278;27567;-31
2022/06/03 08:00:52;;;;;;;4.90;2.00;;;;;;101289.96;;;;107491;1277;29757;-31
2022/06/03 08:03:23;;;;;;;3.40;1.60;;;;;;101291.58;;;;107479;1278;29481;-31
2022/06/03 08:05:58;;;;;;;4.00;1.50;;;;;;101289.16;;;;107528;1277;28741;-31
2022/06/03 08:11:17;;;;;;;2.90;1.70;;;;;;101291.05;;;;107492;1278;28816;-31
2022/06/03 08:13:51;;;;;;;3.30;1.90;;;;;;101293.77;;;;107536;1277;28393;-31
2022/06/03 08:16:35;;;;;;;3.50;1.70;;;;;;101294.27;;;;107512;1277;27437;-31
2022/06/03 08:19:20;;;;;;;3.80;1.90;;;;;;101298.48;;;;107508;1277;28720;-31
2022/06/03 08:21:52;;;;;;;4.10;1.90;;;;;;101295.27;;;;107529;1277;29555;-32
2022/06/03 08:24:24;;;;;;;4.00;1.90;;;;;;101294.80;;;;107505;1278;29440;-30
2022/06/03 08:26:59;;;;;;;5.00;1.90;;;;;;101295.38;;;;107552;1277;29755;-31
2022/06/03 08:29:39;;;;;;;3.20;1.70;;;;;;101289.10;;;;107530;1278;28679;-31
2022/06/03 08:32:36;;;;;;;4.20;2.00;;;;;;101285.01;;;;107484;1278;27673;-31
2022/06/03 08:35:17;;;;;;;3.40;1.80;;;;;;101276.09;;;;107512;1278;27657;-31
2022/06/03 08:37:58;;;;;;;3.40;1.70;;;;;;101284.05;;;;107514;1278;26202;-32
2022/06/03 08:40:36;;;;;;;2.90;1.60;;;;;;101280.08;;;;107631;1278;29655;-31
2022/06/03 08:43:37;;;;;;;3.00;1.70;;;;;;101279.11;;;;107571;1277;29504;-31
2022/06/03 08:46:03;;;;;;;3.10;1.70;;;;;;101276.62;;;;107516;1278;29622;-30
2022/06/03 08:48:35;;;;;;;3.20;1.80;;;;;;101276.40;;;;107503;1278;28627;-30
2022/06/03 08:51:08;;;;;;;3.70;1.80;;;;;;101269.58;;;;107547;1277;28667;-30
2022/06/03 08:53:58;;;;;;;3.20;1.70;;;;;;101274.20;;;;107518;1278;29560;-30
2022/06/03 08:56:38;;;;;;;3.30;1.60;;;;;;101268.41;;;;107484;1277;28647;-30
2022/06/03 08:59:21;;;;;;;3.70;1.80;;;;;;101267.98;;;;107520;1277;28679;-31
2022/06/03 09:01:54;;;;;;;;;;;;;;101266.85;;;;107540;1278;27447;-31
2022/06/03 09:04:20;;;;;;;3.30;1.70;;;;;;101266.77;;;;107574;1277;26489;-31
2022/06/03 09:07:01;;;;;;;3.00;1.70;;;;;;101264.58;;;;107494;1277;28819;-31
2022/06/03 09:09:44;;;;;;;3.10;1.70;;;;;;101263.95;;;;107522;1277;28691;-31
2022/06/03 09:13:00;;;;;;;3.50;1.70;;;;;;101262.98;;;;107506;1277;29405;-31
2022/06/03 09:15:34;;;;;;;3.20;1.70;;;;;;101264.05;;;;107341;1277;26211;-31
2022/06/03 09:18:26;;;;;;;3.30;1.70;;;;;;101265.85;;;;107441;1278;26091;-31
2022/06/03 09:21:15;;;;;;;3.10;1.70;;;;;;101270.38;;;;107552;1277;27639;-31
2022/06/03 09:24:11;;;;;;;3.60;1.80;;;;;;101276.55;;;;107482;1278;28632;-31
2022/06/03 09:26:44;;;;;;;3.20;1.80;;;;;;101279.25;;;;107532;1277;28663;-31
2022/06/03 09:29:13;;;;;;;3.60;1.90;;;;;;101274.31;;;;107543;1278;29489;-31
2022/06/03 09:31:46;;;;;;;4.00;1.80;;;;;;101274.00;;;;107526;1278;27242;-32
2022/06/03 09:34:14;;;;;;;3.10;1.60;;;;;;101273.84;;;;107482;1278;28728;-32
2022/06/03 09:36:41;;;;;;;3.80;2.00;;;;;;101270.23;;;;107530;1277;28712;-32
2022/06/03 09:39:13;;;;;;;3.60;1.70;;;;;;101263.83;;;;107507;1277;28825;-31
2022/06/03 09:41:44;;;;;;;3.20;1.60;;;;;;101265.13;;;;107517;1278;28727;-30
2022/06/03 09:44:14;;;;;;;3.10;1.60;;;;;;101265.94;;;;107543;1277;27305;-28
2022/06/03 09:46:41;;;;;;;3.30;2.00;;;;;;101265.45;;;;107555;1277;28371;-30
2022/06/03 09:49:09;;;;;;;3.80;1.80;;;;;;101262.77;;;;107494;1278;29204;-29
2022/06/03 09:51:56;;;;;;;3.30;1.70;;;;;;101261.05;;;;107528;1278;28668;-31
2022/06/03 09:54:37;;;;;;;2.90;1.90;;;;;;101266.97;;;;107498;1277;27893;-30
2022/06/03 09:57:26;;;;;;;3.70;1.90;;;;;;101262.60;;;;107513;1277;28773;-30
2022/06/03 10:00:00;;;;;;;2.90;1.70;;;;;;101261.60;;;;107514;1278;30999;-30
2022/06/03 10:02:27;;;;;;;3.00;1.70;;;;;;101261.79;;;;107521;1277;27727;-30
2022/06/03 10:04:54;;;;;;;3.00;1.60;;;;;;101257.86;;;;107489;1278;29547;-31
2022/06/03 10:07:25;;;;;;;2.80;1.50;;;;;;101259.16;;;;107483;1278;26424;-32
2022/06/03 10:12:50;;;;;;;3.80;1.90;;;;;;101248.83;;;;107510;1278;28816;-31
2022/06/03 10:15:40;;;;;;;2.80;1.70;;;;;;101246.96;;;;107486;1278;28071;-31
2022/06/03 10:18:39;;;;;;;2.80;1.60;;;;;;101238.27;;;;107521;1278;27290;-30
2022/06/03 10:21:26;;;;;;;3.80;1.90;;;;;;101240.90;;;;107514;1278;28525;-30
2022/06/03 10:23:52;;;;;;;2.50;1.60;;;;;;101239.05;;;;107509;1279;27511;-31
2022/06/03 10:26:23;;;;;;;3.00;1.70;;;;;;101237.69;;;;107469;1278;28335;-31
2022/06/03 10:28:55;;;;;;;3.40;1.70;;;;;;101240.48;;;;107466;1278;29830;-30
2022/06/03 10:31:33;;;;;;;3.10;1.70;;;;;;101245.91;;;;107499;1277;28558;-30
2022/06/03 10:34:14;;;;;;;3.60;1.90;;;;;;101241.08;;;;107523;1278;27476;-31
2022/06/03 10:36:45;;;;;;;4.70;1.80;;;;;;101237.05;;;;107508;1278;28560;-31
2022/06/03 10:39:17;;;;;;;3.50;1.90;;;;;;101234.41;;;;107503;1278;27583;-30
2022/06/03 10:41:50;;;;;;;3.20;1.70;;;;;;101229.48;;;;107524;1277;28592;-31
2022/06/03 10:44:22;;;;;;;2.50;1.60;;;;;;101231.77;;;;107495;1278;26822;-30
2022/06/03 10:47:02;;;;;;;3.40;1.90;;;;;;101233.33;;;;107537;1279;29469;-31
2022/06/03 10:49:34;;;;;;;2.60;1.70;;;;;;101235.79;;;;107543;1278;26568;-28
2022/06/03 11:03:31;;;;;;;3.90;2.00;;;;;;101226.85;;;;107517;1277;27694;-30
2022/06/03 11:06:11;;;;;;;3.30;1.80;;;;;;101213.09;;;;107553;1277;29668;-30
2022/06/03 11:09:02;;;;;;;2.80;1.70;;;;;;101212.87;;;;107492;1278;29768;-30
2022/06/03 11:11:47;;;;;;;3.00;1.70;;;;;;101212.70;;;;107526;1278;29637;-30
2022/06/03 11:14:39;;;;;;;3.00;1.60;;;;;;101209.36;;;;107482;1278;28631;-31
2022/06/03 11:17:21;;;;;;;3.60;1.60;;;;;;101210.71;;;;107495;1278;27280;-30
2022/06/03 11:19:56;;;;;;;3.60;1.80;;;;;;101208.64;;;;107510;1277;28611;-30
2022/06/03 11:22:36;;;;;;;3.10;1.90;;;;;;101203.66;;;;107559;1278;28704;-30
2022/06/03 11:25:22;;;;;;;2.80;1.60;;;;;;101204.16;;;;107515;1278;27614;-30
2022/06/03 11:27:57;;;;;;;3.40;1.80;;;;;;101203.93;;;;107490;1279;28715;-30
2022/06/03 11:30:43;;;;;;;3.00;1.90;;;;;;101199.56;;;;107503;1278;26540;-30
2022/06/03 11:33:24;;;;;;;3.10;2.00;;;;;;101194.52;;;;107481;1278;29868;-30
2022/06/03 11:36:03;;;;;;;2.90;2.00;;;;;;101187.14;;;;107518;1277;28613;-30
2022/06/03 11:38:54;;;;;;;3.60;1.60;;;;;;101186.45;;;;107509;1278;27293;-30
2022/06/03 11:41:31;;;;;;;3.40;1.90;;;;;;101177.39;;;;107499;1278;28522;-30
2022/06/03 11:44:20;;;;;;;3.20;1.90;;;;;;101177.64;;;;107518;1279;26557;-30
2022/06/03 11:46:53;;;;;;;3.00;1.60;;;;;;101183.07;;;;107482;1279;28709;-30
2022/06/03 11:49:22;;;;;;;3.50;1.80;;;;;;101179.23;;;;107519;1277;26219;-30
2022/06/03 11:51:48;;;;;;;3.70;1.70;;;;;;101173.45;;;;107522;1277;26494;-30
2022/06/03 11:54:19;;;;;;;3.70;2.00;;;;;;101168.20;;;;107457;1279;26473;-30
2022/06/03 11:56:46;;;;;;;3.20;1.80;;;;;;101161.00;;;;107503;1279;28676;-31
2022/06/03 11:59:34;;;;;;;3.60;1.80;;;;;;101162.71;;;;107500;1278;27818;-30
2022/06/03 12:02:22;;;;;;;5.20;2.00;;;;;;101160.58;;;;107511;1279;28732;-30
2022/06/03 12:05:05;;;;;;;4.00;1.70;;;;;;101159.42;;;;107511;1277;28530;-30
2022/06/03 12:08:03;;;;;;;3.10;1.70;;;;;;101161.88;;;;107498;1277;28687;-31
2022/06/03 12:11:04;;;;;;;3.10;1.60;;;;;;101159.27;;;;107485;1277;28668;-30
2022/06/03 12:13:33;;;;;;;3.40;1.50;;;;;;101155.43;;;;107497;1277;28781;-29
2022/06/03 12:16:19;;;;;;;2.90;1.60;;;;;;101146.90;;;;107543;1279;28657;-31
2022/06/03 12:19:01;;;;;;;3.00;1.80;;;;;;101139.66;;;;107521;1279;28744;-30
2022/06/03 12:21:29;;;;;;;3.10;1.60;;;;;;101141.44;;;;107498;1278;28714;-30
2022/06/03 12:24:36;;;;;;;3.60;1.70;;;;;;101140.06;;;;107515;1278;28770;-31
2022/06/03 12:27:10;;;;;;;2.70;1.70;;;;;;101136.98;;;;107503;1277;27593;-32
2022/06/03 12:29:44;;;;;;;3.40;1.70;;;;;;101136.70;;;;107524;1280;28867;-31
2022/06/03 12:32:17;;;;;;;2.80;1.50;;;;;;101135.19;;;;107486;1278;28809;-31
2022/06/03 12:34:44;;;;;;;3.80;1.70;;;;;;101133.79;;;;107488;1278;27686;-30
2022/06/03 12:37:29;;;;;;;3.30;1.90;;;;;;101136.11;;;;107510;1277;28732;-30
2022/06/03 12:40:04;;;;;;;3.10;1.60;;;;;;101129.23;;;;107463;1279;27622;-30
2022/06/03 12:42:40;;;;;;;2.90;1.60;;;;;;101124.88;;;;107490;1279;28670;-29
2022/06/03 12:45:28;;;;;;;3.70;1.60;;;;;;101122.52;;;;107541;1278;28171;-28
2022/06/03 12:47:55;;;;;;;3.20;1.60;;;;;;101123.74;;;;107424;1277;28668;-30
2022/06/03 12:50:36;;;;;;;2.70;1.50;;;;;;101121.18;;;;107483;1278;27424;-30
2022/06/03 12:53:35;;;;;;;3.30;1.70;;;;;;101119.35;;;;107522;1279;28529;-30
2022/06/03 12:56:07;;;;;;;2.80;1.60;;;;;;101123.83;;;;107522;1277;28645;-30
2022/06/03 12:58:48;;;;;;;3.80;1.50;;;;;;101124.44;;;;107505;1279;28729;-30
2022/06/03 13:01:40;;;;;;;2.80;1.60;;;;;;101123.00;;;;107442;1277;28797;-30
2022/06/03 13:04:43;;;;;;;3.40;1.80;;;;;;101121.78;;;;107495;1278;28632;-30
2022/06/03 13:07:29;;;;;;;3.30;1.50;;;;;;101112.98;;;;107500;1276;29766;-30
2022/06/03 13:10:02;;;;;;;2.90;1.60;;;;;;101117.55;;;;107516;1277;27381;-30
2022/06/03 13:12:49;;;;;;;2.70;1.60;;;;;;101113.92;;;;107525;1279;29070;-30
2022/06/03 13:15:22;;;;;;;2.80;1.60;;;;;;101119.02;;;;107531;1278;28529;-30
2022/06/03 13:18:12;;;;;;;2.50;1.70;;;;;;101116.22;;;;107534;1278;27230;-30
2022/06/03 13:20:48;;;;;;;2.40;1.50;;;;;;101113.52;;;;107520;1277;30128;-30
2022/06/03 13:23:21;;;;;;;2.70;1.50;;;;;;101108.81;;;;107542;1279;28866;-30
2022/06/03 13:25:50;;;;;;;3.00;1.80;;;;;;101110.25;;;;107516;1277;29608;-31
2022/06/03 13:28:38;;;;;;;3.70;1.70;;;;;;101112.14;;;;107378;1278;207854;-30
2022/06/03 13:31:14;;;;;;;2.20;1.30;;;;;;101106.65;;;;107560;1278;26428;-31
2022/06/03 13:34:08;;;;;;;3.10;1.70;;;;;;101103.73;;;;107523;1278;28842;-31
2022/06/03 13:36:50;;;;;;;2.70;1.40;;;;;;101100.35;;;;107523;1279;27280;-30
2022/06/03 13:39:43;;;;;;;2.70;1.40;;;;;;101101.02;;;;107514;1279;27322;-31
2022/06/03 13:45:01;;;;;;;2.60;1.40;;;;;;101092.89;;;;107515;1277;29692;-30
2022/06/03 13:47:47;;;;;;;2.30;1.40;;;;;;101092.00;;;;107526;1279;27585;-31
2022/06/03 13:50:13;;;;;;;2.40;1.40;;;;;;101088.77;;;;107516;1279;28783;-32
2022/06/03 13:52:46;;;;;;;2.50;1.50;;;;;;101085.19;;;;107529;1278;27953;-31
2022/06/03 13:55:37;;;;;;;3.00;1.30;;;;;;101083.83;;;;107507;1278;30279;-30
2022/06/03 13:58:33;;;;;;;2.50;1.30;;;;;;101078.61;;;;107510;1279;28498;-30
2022/06/03 14:01:34;;;;;;;2.30;1.30;;;;;;101075.95;;;;107563;1278;28548;-30
2022/06/03 14:04:13;;;;;;;3.60;1.50;;;;;;101072.46;;;;107454;1279;27431;-31
2022/06/03 14:07:04;;;;;;;3.40;1.50;;;;;;101071.20;;;;107543;1277;26762;-30
2022/06/03 14:09:38;;;;;;;2.90;1.60;;;;;;101065.45;;;;107541;1278;27403;-30
2022/06/03 14:12:05;;;;;;;4.00;1.50;;;;;;101058.50;;;;107500;1277;28519;-29
2022/06/03 14:14:53;;;;;;;4.40;1.70;;;;;;101055.30;;;;107529;1278;28293;-31
2022/06/03 14:17:54;;;;;;;3.10;1.80;;;;;;101052.42;;;;107468;1279;27385;-30
2022/06/03 14:20:29;;;;;;;2.90;1.70;;;;;;101052.19;;;;107541;1279;28680;-30
2022/06/03 14:23:14;;;;;;;2.70;1.50;;;;;;101048.88;;;;107557;1280;29705;-30
2022/06/03 14:26:13;;;;;;;3.80;1.50;;;;;;101044.40;;;;107547;1278;28446;-30
2022/06/03 14:28:48;;;;;;;2.90;1.70;;;;;;101040.45;;;;107494;1278;28891;-31
2022/06/03 14:31:35;;;;;;;2.80;1.50;;;;;;101041.30;;;;107492;1280;27648;-31
2022/06/03 14:34:26;;;;;;;2.80;1.30;;;;;;101042.42;;;;107515;1279;27392;-30
2022/06/03 14:36:57;;;;;;;3.30;1.70;;;;;;101043.82;;;;107426;1277;29743;-31
2022/06/03 14:39:34;;;;;;;2.70;1.50;;;;;;101041.66;;;;107555;1278;29485;-31
2022/06/03 14:42:12;;;;;;;3.20;1.50;;;;;;101036.61;;;;107578;1278;28812;-31
2022/06/03 14:44:42;;;;;;;2.80;1.50;;;;;;101034.94;;;;107530;1278;28648;-31
2022/06/03 14:47:30;;;;;;;2.80;1.50;;;;;;101033.13;;;;107547;1278;28604;-31
2022/06/03 14:50:17;;;;;;;3.10;1.50;;;;;;101027.80;;;;107518;1278;28481;-31
2022/06/03 14:52:55;;;;;;;3.00;1.40;;;;;;101024.77;;;;107522;1277;28592;-31
2022/06/03 14:55:30;;;;;;;2.80;1.60;;;;;;101022.11;;;;107509;1278;28841;-30
2022/06/03 14:58:16;;;;;;;2.60;1.50;;;;;;101015.58;;;;107495;1279;28785;-30
2022/06/03 15:01:05;;;;;;;3.10;1.80;;;;;;101011.81;;;;107541;1278;26370;-30
2022/06/03 15:03:41;;;;;;;2.60;1.40;;;;;;101009.80;;;;107513;1278;26501;-30
2022/06/03 15:06:18;;;;;;;3.70;1.50;;;;;;101006.05;;;;107477;1279;29225;-31